Time;durP1;ratioP1;P1;durP2;ratioP2;P2;SDS_P1;SDS_P2;PMS_P1;PMS_P2;Temp;Humidity;BMP_temperature;BMP_pressure;BME280_temperature;BME280_humidity;BME280_pressure;Samples;Min_cycle;Max_cycle;Signal;HPM_P1;HPM_P2
2021/03/16 00:01:23;;;;;;;30.50;3.83;;;5.50;92.80;;;;;;5047059;28;20114;-76
2021/03/16 00:03:49;;;;;;;25.03;4.93;;;5.50;92.90;;;;;;5060049;28;20392;-76
2021/03/16 00:06:16;;;;;;;27.67;3.60;;;5.50;92.70;;;;;;5062744;28;20043;-76
2021/03/16 00:08:42;;;;;;;20.77;3.03;;;5.60;92.50;;;;;;5047348;28;20060;-76
2021/03/16 00:11:08;;;;;;;29.13;3.90;;;5.60;92.40;;;;;;5030402;28;20079;-76
2021/03/16 00:13:33;;;;;;;21.93;4.43;;;5.80;91.80;;;;;;5026449;28;20037;-76
2021/03/16 00:16:00;;;;;;;28.33;4.10;;;5.70;91.90;;;;;;5031395;28;20037;-78
2021/03/16 00:18:26;;;;;;;23.60;3.87;;;5.70;91.90;;;;;;5020902;28;20037;-76
2021/03/16 00:20:52;;;;;;;23.60;4.03;;;5.70;91.80;;;;;;5029139;28;20688;-75
2021/03/16 00:23:19;;;;;;;25.00;3.87;;;5.70;91.80;;;;;;5040124;28;20041;-75
2021/03/16 00:25:45;;;;;;;18.57;2.77;;;5.70;91.90;;;;;;5047361;28;20430;-75
2021/03/16 00:28:11;;;;;;;30.83;3.73;;;5.70;92.00;;;;;;5025510;28;20041;-75
2021/03/16 00:30:37;;;;;;;24.07;3.53;;;5.70;92.00;;;;;;5047966;28;20340;-75
2021/03/16 00:33:03;;;;;;;29.07;4.10;;;5.60;92.20;;;;;;5034256;28;20060;-75
2021/03/16 00:35:29;;;;;;;29.57;5.03;;;5.60;92.40;;;;;;5025315;28;20269;-75
2021/03/16 00:37:55;;;;;;;25.87;4.23;;;5.60;92.40;;;;;;5041073;28;20044;-76
2021/03/16 00:40:21;;;;;;;32.57;4.10;;;5.60;92.40;;;;;;5038249;28;20120;-76
2021/03/16 00:42:47;;;;;;;26.53;3.77;;;5.70;92.40;;;;;;5043129;28;20036;-75
2021/03/16 00:45:13;;;;;;;25.33;3.63;;;5.70;92.30;;;;;;5011227;28;20055;-75
2021/03/16 00:47:39;;;;;;;28.93;4.30;;;5.70;92.40;;;;;;5043090;28;20520;-75
2021/03/16 00:50:07;;;;;;;25.33;3.47;;;5.70;92.40;;;;;;5043016;28;20041;-76
2021/03/16 00:52:33;;;;;;;27.97;3.70;;;5.80;92.30;;;;;;5041429;28;20041;-76
2021/03/16 00:54:59;;;;;;;25.77;3.43;;;5.80;92.20;;;;;;5044711;28;20037;-76
2021/03/16 00:57:25;;;;;;;28.23;4.37;;;5.80;92.50;;;;;;5036958;28;20514;-75
2021/03/16 00:59:51;;;;;;;29.03;3.67;;;5.80;92.50;;;;;;5026716;28;20037;-76
2021/03/16 01:02:19;;;;;;;31.87;4.83;;;5.80;92.60;;;;;;5040896;28;20060;-75
2021/03/16 01:04:45;;;;;;;35.50;4.97;;;5.80;92.60;;;;;;5041623;28;20055;-76
2021/03/16 01:07:12;;;;;;;23.73;3.50;;;5.80;92.70;;;;;;5041765;28;20040;-76
2021/03/16 01:09:38;;;;;;;27.47;3.80;;;5.90;92.70;;;;;;5042008;28;20049;-77
2021/03/16 01:12:05;;;;;;;24.67;3.37;;;5.80;92.70;;;;;;5043653;28;20045;-76
2021/03/16 01:14:32;;;;;;;21.00;3.70;;;5.80;92.40;;;;;;5063635;28;20056;-75
2021/03/16 01:16:58;;;;;;;20.53;3.50;;;5.90;91.80;;;;;;5037341;28;20029;-75
2021/03/16 01:19:24;;;;;;;27.97;3.80;;;6.00;91.50;;;;;;5040518;28;20080;-74
2021/03/16 01:21:49;;;;;;;20.57;3.80;;;6.00;91.10;;;;;;5040164;28;20449;-76
2021/03/16 01:24:15;;;;;;;24.77;3.30;;;6.00;91.20;;;;;;5058454;28;20131;-76
2021/03/16 01:26:41;;;;;;;19.87;2.63;;;6.00;90.80;;;;;;5040273;28;20400;-76
2021/03/16 01:29:09;;;;;;;19.13;2.60;;;6.00;90.60;;;;;;5042570;28;20140;-76
2021/03/16 01:31:36;;;;;;;21.73;3.63;;;6.10;90.30;;;;;;5029053;28;20115;-75
2021/03/16 01:34:03;;;;;;;16.73;3.03;;;6.10;90.30;;;;;;5032988;28;20051;-75
2021/03/16 01:36:29;;;;;;;21.10;2.83;;;6.10;90.10;;;;;;5049765;28;20032;-76
2021/03/16 01:38:55;;;;;;;18.43;3.40;;;6.00;90.10;;;;;;5051740;28;20044;-75
2021/03/16 01:41:21;;;;;;;19.33;2.70;;;6.00;90.50;;;;;;5062926;28;20479;-77
2021/03/16 01:43:47;;;;;;;21.43;2.63;;;6.00;90.50;;;;;;5043039;28;20048;-76
2021/03/16 01:46:18;;;;;;;20.50;4.43;;;6.00;90.50;;;;;;5065593;28;20043;-75
2021/03/16 01:48:43;;;;;;;;;;;6.00;90.60;;;;;;5069163;28;20066;-75
2021/03/16 01:51:11;;;;;;;25.43;3.13;;;6.00;90.70;;;;;;5064242;28;20433;-75
2021/03/16 01:53:39;;;;;;;16.63;3.07;;;5.90;91.00;;;;;;5009340;28;20044;-76
2021/03/16 01:56:07;;;;;;;18.00;2.93;;;5.90;91.20;;;;;;5027870;28;20055;-75
2021/03/16 01:58:33;;;;;;;20.63;3.33;;;5.90;91.40;;;;;;5061775;28;20609;-76
2021/03/16 02:00:59;;;;;;;25.60;3.53;;;6.00;91.20;;;;;;5030242;28;20116;-76
2021/03/16 02:03:26;;;;;;;22.60;3.17;;;6.00;91.00;;;;;;5032435;28;20143;-76
2021/03/16 02:05:52;;;;;;;23.97;3.27;;;6.00;91.20;;;;;;5049783;28;20071;-76
2021/03/16 02:08:18;;;;;;;18.03;2.77;;;6.00;91.30;;;;;;5030291;28;20051;-76
2021/03/16 02:11:08;;;;;;;25.37;4.17;;;6.10;91.30;;;;;;5049751;28;20049;-76
2021/03/16 02:14:12;;;;;;;25.40;4.28;;;6.00;91.40;;;;;;5048470;28;20037;-76
2021/03/16 02:17:01;;;;;;;19.23;2.50;;;6.00;91.30;;;;;;5023982;28;20053;-75
2021/03/16 02:19:39;;;;;;;20.50;3.60;;;6.10;91.20;;;;;;5066202;28;20406;-76
2021/03/16 02:22:05;;;;;;;21.60;2.57;;;6.00;91.10;;;;;;5063898;28;20679;-75
2021/03/16 02:24:50;;;;;;;21.10;3.67;;;5.90;91.60;;;;;;5085915;28;20044;-76
2021/03/16 02:27:19;;;;;;;24.87;3.33;;;5.90;91.40;;;;;;5068566;28;20151;-76
2021/03/16 02:29:53;;;;;;;25.60;3.87;;;6.00;91.50;;;;;;5049204;28;20037;-76
2021/03/16 02:32:24;;;;;;;22.33;2.87;;;5.90;91.70;;;;;;5068227;28;20403;-75
2021/03/16 02:35:04;;;;;;;21.50;3.23;;;5.90;91.80;;;;;;5047364;28;20477;-75
2021/03/16 02:37:34;;;;;;;24.00;4.03;;;5.90;91.90;;;;;;5023796;28;20447;-75
2021/03/16 02:40:03;;;;;;;22.95;3.78;;;5.90;91.90;;;;;;5040437;28;20087;-75
2021/03/16 02:42:33;;;;;;;20.57;3.10;;;5.80;92.00;;;;;;5014936;28;20072;-76
2021/03/16 02:45:01;;;;;;;22.40;3.58;;;5.80;92.20;;;;;;5023275;28;20503;-76
2021/03/16 02:47:27;;;;;;;21.47;3.53;;;5.80;92.30;;;;;;5026891;28;20033;-76
2021/03/16 02:49:54;;;;;;;17.60;2.80;;;5.80;92.40;;;;;;5047797;28;20477;-75
2021/03/16 02:52:22;;;;;;;18.20;3.40;;;5.80;92.50;;;;;;5046362;28;20044;-76
2021/03/16 02:54:50;;;;;;;25.70;3.83;;;5.80;92.60;;;;;;5029794;28;20451;-76
2021/03/16 02:57:17;;;;;;;26.77;3.60;;;5.80;92.50;;;;;;5040929;28;20052;-76
2021/03/16 02:59:45;;;;;;;24.73;3.00;;;5.80;92.70;;;;;;5013873;28;20435;-75
2021/03/16 03:02:12;;;;;;;23.23;4.00;;;5.80;92.70;;;;;;5027148;28;20089;-75
2021/03/16 03:04:41;;;;;;;28.60;3.50;;;5.80;92.70;;;;;;5029989;28;20025;-76
2021/03/16 03:07:14;;;;;;;24.50;3.37;;;5.80;92.90;;;;;;5026758;28;20044;-76
2021/03/16 03:09:41;;;;;;;27.07;3.17;;;5.80;93.00;;;;;;5012459;28;20512;-76
2021/03/16 03:12:08;;;;;;;25.03;3.50;;;5.80;92.90;;;;;;5021405;28;20045;-75
2021/03/16 03:14:36;;;;;;;18.10;3.10;;;5.80;93.10;;;;;;5025896;28;20162;-76
2021/03/16 03:17:04;;;;;;;19.93;3.40;;;5.70;93.10;;;;;;5020560;28;20085;-75
2021/03/16 03:19:30;;;;;;;23.27;4.40;;;5.70;93.30;;;;;;5002429;28;20613;-76
2021/03/16 03:22:13;;;;;;;23.17;3.37;;;5.70;93.30;;;;;;5020815;28;20037;-75
2021/03/16 03:25:03;;;;;;;22.10;3.50;;;5.70;93.30;;;;;;5038046;28;20037;-76
2021/03/16 03:27:36;;;;;;;21.52;3.30;;;5.70;93.30;;;;;;5043457;28;20033;-76
2021/03/16 03:30:05;;;;;;;26.57;3.67;;;5.60;93.20;;;;;;5023430;28;20037;-76
2021/03/16 03:32:37;;;;;;;23.90;3.63;;;5.60;93.30;;;;;;5029218;28;20061;-76
2021/03/16 03:35:05;;;;;;;25.37;3.33;;;5.60;93.30;;;;;;5013061;28;20099;-75
2021/03/16 03:37:33;;;;;;;17.80;3.13;;;5.70;93.30;;;;;;5035746;28;20178;-75
2021/03/16 03:39:59;;;;;;;20.70;2.97;;;5.60;93.30;;;;;;5043273;28;20072;-75
2021/03/16 03:42:26;;;;;;;20.33;3.13;;;5.60;93.40;;;;;;5047649;28;20501;-75
2021/03/16 03:44:54;;;;;;;16.27;2.77;;;5.60;93.70;;;;;;5036462;28;20084;-77
2021/03/16 03:47:20;;;;;;;22.13;3.00;;;5.60;93.40;;;;;;5026294;28;20120;-77
2021/03/16 03:49:48;;;;;;;20.70;2.93;;;5.70;93.50;;;;;;5024374;28;20049;-77
2021/03/16 03:52:17;;;;;;;19.63;3.03;;;5.60;93.40;;;;;;5025581;28;20052;-77
2021/03/16 03:54:45;;;;;;;27.57;3.87;;;5.60;93.40;;;;;;5041647;28;20037;-77
2021/03/16 03:57:12;;;;;;;21.40;3.97;;;5.70;93.50;;;;;;5028005;28;20049;-77
2021/03/16 03:59:43;;;;;;;21.83;3.93;;;5.70;93.60;;;;;;5029091;28;20047;-77
2021/03/16 04:02:10;;;;;;;19.63;3.37;;;5.70;93.50;;;;;;5025648;28;20102;-75
2021/03/16 04:04:40;;;;;;;25.53;3.53;;;5.70;93.60;;;;;;5046343;28;20036;-74
2021/03/16 04:07:14;;;;;;;18.40;3.43;;;5.70;93.60;;;;;;5044269;28;20041;-76
2021/03/16 04:09:39;;;;;;;27.90;3.40;;;5.60;93.70;;;;;;5043854;28;20041;-74
2021/03/16 04:12:06;;;;;;;21.53;4.03;;;5.60;93.80;;;;;;5023290;28;20098;-75
2021/03/16 04:14:34;;;;;;;18.50;3.13;;;5.60;93.70;;;;;;5029483;28;20124;-75
2021/03/16 04:17:01;;;;;;;21.00;3.10;;;5.60;93.80;;;;;;5043602;28;20090;-75
2021/03/16 04:19:27;;;;;;;23.83;3.53;;;5.70;93.80;;;;;;5045667;28;20503;-74
2021/03/16 04:21:54;;;;;;;17.00;3.10;;;5.70;93.80;;;;;;5038367;28;20033;-75
2021/03/16 04:24:21;;;;;;;20.97;2.93;;;5.70;93.80;;;;;;5045024;28;20128;-75
2021/03/16 04:26:47;;;;;;;19.17;3.13;;;5.70;93.90;;;;;;5002585;28;20140;-75
2021/03/16 04:29:13;;;;;;;22.20;3.27;;;5.70;94.00;;;;;;5026420;28;20426;-74
2021/03/16 04:31:39;;;;;;;16.13;2.87;;;5.70;94.00;;;;;;5060431;28;20045;-75
2021/03/16 04:34:08;;;;;;;26.27;3.10;;;5.60;94.10;;;;;;5047390;28;20048;-75
2021/03/16 04:36:34;;;;;;;22.50;3.50;;;5.70;94.20;;;;;;5062835;28;20060;-75
2021/03/16 04:39:00;;;;;;;23.53;3.00;;;5.60;94.20;;;;;;5063778;28;20067;-75
2021/03/16 04:41:26;;;;;;;24.67;2.93;;;5.60;94.00;;;;;;5028561;28;20042;-75
2021/03/16 04:43:55;;;;;;;19.63;2.20;;;5.60;94.10;;;;;;5048078;28;20044;-75
2021/03/16 04:46:24;;;;;;;24.30;3.57;;;5.60;94.00;;;;;;5057570;28;20040;-75
2021/03/16 04:48:51;;;;;;;27.83;3.47;;;5.70;94.10;;;;;;5048779;28;20041;-75
2021/03/16 04:51:17;;;;;;;21.17;3.63;;;5.60;94.00;;;;;;5044726;28;20045;-75
2021/03/16 04:53:43;;;;;;;20.73;3.53;;;5.60;94.00;;;;;;5031111;28;20635;-76
2021/03/16 04:56:09;;;;;;;23.53;4.07;;;5.60;94.10;;;;;;5047073;28;20070;-76
2021/03/16 04:58:35;;;;;;;19.40;3.57;;;5.60;94.10;;;;;;5009788;28;20045;-75
2021/03/16 05:01:01;;;;;;;22.90;2.80;;;5.50;94.10;;;;;;5040334;28;20211;-76
2021/03/16 05:03:27;;;;;;;24.83;4.17;;;5.50;94.20;;;;;;5005081;28;20091;-76
2021/03/16 05:05:52;;;;;;;20.87;3.40;;;5.50;94.20;;;;;;5060678;28;20045;-75
2021/03/16 05:08:21;;;;;;;21.60;2.67;;;5.50;94.20;;;;;;5047525;28;20033;-76
2021/03/16 05:10:47;;;;;;;22.67;3.63;;;5.50;94.10;;;;;;5020242;28;20455;-75
2021/03/16 05:13:13;;;;;;;21.77;3.23;;;5.50;94.10;;;;;;5027107;28;20127;-75
2021/03/16 05:15:38;;;;;;;18.57;2.73;;;5.40;94.00;;;;;;5080664;28;20441;-75
2021/03/16 05:18:04;;;;;;;25.73;2.80;;;5.50;94.10;;;;;;5012311;28;20049;-76
2021/03/16 05:20:30;;;;;;;22.90;2.90;;;5.40;94.10;;;;;;5030611;28;20051;-75
2021/03/16 05:22:56;;;;;;;20.80;3.20;;;5.40;94.10;;;;;;5032193;28;20036;-75
2021/03/16 05:25:22;;;;;;;22.50;3.00;;;5.40;94.20;;;;;;5029629;28;20334;-75
2021/03/16 05:27:51;;;;;;;15.80;2.67;;;5.40;94.20;;;;;;5030750;28;20415;-75
2021/03/16 05:30:17;;;;;;;15.20;2.30;;;5.40;94.30;;;;;;5015778;28;20149;-75
2021/03/16 05:32:43;;;;;;;20.20;2.80;;;5.40;94.30;;;;;;4989884;28;20076;-77
2021/03/16 05:35:10;;;;;;;19.70;2.90;;;5.40;94.30;;;;;;5040279;28;20480;-76
2021/03/16 05:37:40;;;;;;;19.27;2.50;;;5.40;94.30;;;;;;5024700;28;20368;-76
2021/03/16 05:40:06;;;;;;;21.73;2.80;;;5.40;94.40;;;;;;5043513;28;20076;-76
2021/03/16 05:42:33;;;;;;;22.50;2.67;;;5.40;94.30;;;;;;5024140;28;20479;-76
2021/03/16 05:45:00;;;;;;;18.30;2.93;;;5.40;94.30;;;;;;5017284;28;20040;-77
2021/03/16 05:47:31;;;;;;;16.80;2.70;;;5.40;94.30;;;;;;5061256;28;20123;-76
2021/03/16 05:49:58;;;;;;;14.03;2.60;;;5.40;94.30;;;;;;5040326;28;20588;-77
2021/03/16 05:52:24;;;;;;;15.17;2.83;;;5.40;94.30;;;;;;5034095;28;20049;-79
2021/03/16 05:54:57;;;;;;;20.53;2.87;;;5.40;94.30;;;;;;5020536;28;20038;-78
2021/03/16 05:57:26;;;;;;;24.73;3.10;;;5.40;94.20;;;;;;5038390;28;20482;-78
2021/03/16 05:59:52;;;;;;;16.17;2.53;;;5.40;94.20;;;;;;5043840;28;20041;-78
2021/03/16 06:02:19;;;;;;;20.43;2.60;;;5.30;94.10;;;;;;5055536;28;20051;-76
2021/03/16 06:04:45;;;;;;;19.93;2.77;;;5.40;94.10;;;;;;5020709;28;20051;-76
2021/03/16 06:07:13;;;;;;;22.83;2.90;;;5.30;94.00;;;;;;5027284;28;20041;-76
2021/03/16 06:09:39;;;;;;;15.63;2.70;;;5.30;94.00;;;;;;5039509;28;20045;-76
2021/03/16 06:12:06;;;;;;;19.23;3.03;;;5.30;94.00;;;;;;5023023;28;20049;-76
2021/03/16 06:14:32;;;;;;;19.30;2.30;;;5.30;94.10;;;;;;5033677;28;20404;-76
2021/03/16 06:16:59;;;;;;;24.90;3.23;;;5.30;94.00;;;;;;5038400;28;20072;-76
2021/03/16 06:19:33;;;;;;;19.40;3.03;;;5.30;94.10;;;;;;5025212;28;20049;-78
2021/03/16 06:22:08;;;;;;;19.77;3.03;;;5.20;94.10;;;;;;5020216;28;20139;-78
2021/03/16 06:24:46;;;;;;;23.80;2.57;;;5.30;94.20;;;;;;5028485;28;20404;-78
2021/03/16 06:27:27;;;;;;;20.27;3.00;;;5.30;94.20;;;;;;5038012;28;20037;-78
2021/03/16 06:29:54;;;;;;;20.57;3.60;;;5.30;94.20;;;;;;5029583;28;20040;-78
2021/03/16 06:32:20;;;;;;;20.87;3.00;;;5.30;94.20;;;;;;5046574;28;20049;-77
2021/03/16 06:34:46;;;;;;;20.87;3.00;;;5.30;94.20;;;;;;5029636;28;20057;-78
2021/03/16 06:37:17;;;;;;;19.90;3.13;;;5.30;94.30;;;;;;5047012;28;20499;-79
2021/03/16 06:39:45;;;;;;;27.57;3.30;;;5.30;94.30;;;;;;5025763;28;20092;-78
2021/03/16 06:42:26;;;;;;;22.93;2.80;;;5.30;94.30;;;;;;5044424;28;20064;-77
2021/03/16 06:45:02;;;;;;;18.53;2.87;;;5.30;94.30;;;;;;5042034;28;20033;-78
2021/03/16 06:47:29;;;;;;;25.67;3.33;;;5.30;94.20;;;;;;5042697;28;20032;-78
2021/03/16 06:49:54;;;;;;;23.37;3.13;;;5.20;94.30;;;;;;5045181;28;20443;-77
2021/03/16 06:52:25;;;;;;;23.93;3.27;;;5.30;94.20;;;;;;5045104;28;20037;-78
2021/03/16 06:54:50;;;;;;;18.13;3.10;;;5.30;94.20;;;;;;5044002;28;20037;-78
2021/03/16 06:57:24;;;;;;;19.90;3.60;;;5.30;94.20;;;;;;5043444;28;20467;-77
2021/03/16 06:59:50;;;;;;;22.10;3.57;;;5.30;94.20;;;;;;5042930;28;20041;-78
2021/03/16 07:02:16;;;;;;;20.53;3.23;;;5.30;94.30;;;;;;5044032;28;20060;-78
2021/03/16 07:04:43;;;;;;;23.97;3.70;;;5.30;94.20;;;;;;5042545;28;20230;-78
2021/03/16 07:07:11;;;;;;;22.40;3.50;;;5.40;94.20;;;;;;5042944;28;20241;-79
2021/03/16 07:09:37;;;;;;;25.37;5.10;;;5.40;94.00;;;;;;5044376;28;20045;-77
2021/03/16 07:12:04;;;;;;;25.67;3.30;;;5.50;94.10;;;;;;5045075;28;20551;-79
2021/03/16 07:14:31;;;;;;;15.53;2.80;;;5.50;94.20;;;;;;5027934;28;20163;-79
2021/03/16 07:17:01;;;;;;;25.37;3.27;;;5.50;94.20;;;;;;5043867;28;20708;-79
2021/03/16 07:19:29;;;;;;;23.50;3.40;;;5.60;94.10;;;;;;5042669;28;20050;-78
2021/03/16 07:21:57;;;;;;;20.70;3.00;;;5.60;94.00;;;;;;5040948;28;20041;-79
2021/03/16 07:24:26;;;;;;;20.57;2.47;;;5.70;94.00;;;;;;5059169;28;20131;-79
2021/03/16 07:26:55;;;;;;;21.20;3.05;;;5.80;94.00;;;;;;5046528;28;20049;-79
2021/03/16 07:29:22;;;;;;;20.10;2.60;;;5.80;93.70;;;;;;5040980;28;20036;-80
2021/03/16 07:31:49;;;;;;;25.93;3.90;;;5.90;93.40;;;;;;5042829;28;20116;-78
2021/03/16 07:34:19;;;;;;;17.43;2.47;;;6.00;93.60;;;;;;5055230;28;20053;-79
2021/03/16 07:36:48;;;;;;;20.50;2.40;;;6.20;93.50;;;;;;5047822;28;20044;-79
2021/03/16 07:39:19;;;;;;;16.10;3.50;;;6.40;93.40;;;;;;5045582;28;20032;-78
2021/03/16 07:41:47;;;;;;;17.90;2.07;;;6.60;92.80;;;;;;5064472;28;20040;-78
2021/03/16 07:44:16;;;;;;;20.50;3.03;;;6.60;92.10;;;;;;5061738;28;20095;-78
2021/03/16 07:46:47;;;;;;;19.63;2.20;;;6.60;91.80;;;;;;5065721;28;20040;-80
2021/03/16 07:49:26;;;;;;;21.43;2.23;;;6.60;91.90;;;;;;5060696;28;20048;-79
2021/03/16 07:51:52;;;;;;;15.37;1.90;;;6.60;91.90;;;;;;5045392;28;20403;-79
2021/03/16 07:54:21;;;;;;;16.33;2.17;;;6.60;91.90;;;;;;5029730;28;20052;-79
2021/03/16 07:56:59;;;;;;;16.63;2.53;;;6.60;91.70;;;;;;5041845;28;20048;-79
2021/03/16 07:59:34;;;;;;;13.80;2.57;;;6.60;91.80;;;;;;5044379;28;20048;-79
2021/03/16 08:02:00;;;;;;;18.37;3.80;;;6.50;91.70;;;;;;5040359;28;20527;-79
2021/03/16 08:04:53;;;;;;;15.97;3.30;;;6.50;91.40;;;;;;5043288;28;20119;-79
2021/03/16 08:07:23;;;;;;;14.30;1.70;;;6.50;91.50;;;;;;5024092;28;20053;-79
2021/03/16 08:09:55;;;;;;;;;;;6.50;91.40;;;;;;5043667;28;20036;-78
2021/03/16 08:12:29;;;;;;;13.70;2.67;;;6.40;91.20;;;;;;5060903;28;20378;-80
2021/03/16 08:14:55;;;;;;;16.30;2.50;;;6.30;91.40;;;;;;5060686;28;20064;-79
2021/03/16 08:17:36;;;;;;;14.63;2.97;;;6.50;91.00;;;;;;5044255;28;20100;-79
2021/03/16 08:20:04;;;;;;;15.20;2.70;;;6.40;90.90;;;;;;5041290;28;20110;-78
2021/03/16 08:22:31;;;;;;;18.33;3.20;;;6.40;90.90;;;;;;5063090;28;20032;-79
2021/03/16 08:25:05;;;;;;;12.37;1.83;;;6.60;91.00;;;;;;5041129;28;20048;-77
2021/03/16 08:27:34;;;;;;;12.97;2.10;;;6.90;90.40;;;;;;5041910;28;20047;-77
2021/03/16 08:30:05;;;;;;;12.77;2.30;;;7.20;90.00;;;;;;5041825;28;20037;-76
2021/03/16 08:32:33;;;;;;;17.93;2.50;;;7.50;88.80;;;;;;5020898;28;20450;-76
2021/03/16 08:34:59;;;;;;;15.20;2.10;;;7.70;87.40;;;;;;5038082;28;20045;-76
2021/03/16 08:37:26;;;;;;;14.27;3.37;;;7.80;86.10;;;;;;5023309;28;20036;-76
2021/03/16 08:39:56;;;;;;;11.63;1.90;;;7.90;87.00;;;;;;5040768;28;20124;-75
2021/03/16 08:42:24;;;;;;;12.60;1.40;;;7.90;84.30;;;;;;5038734;28;20068;-75
2021/03/16 08:44:52;;;;;;;17.23;2.13;;;7.80;82.10;;;;;;5036196;28;20032;-75
2021/03/16 08:47:26;;;;;;;12.67;1.90;;;7.60;82.40;;;;;;5038909;28;20041;-75
2021/03/16 08:49:55;;;;;;;16.93;2.47;;;7.30;83.40;;;;;;5040773;28;20454;-76
2021/03/16 08:52:27;;;;;;;11.53;2.50;;;7.30;83.80;;;;;;5043535;28;20064;-76
2021/03/16 08:54:55;;;;;;;9.57;1.70;;;7.30;82.00;;;;;;5041290;28;20078;-75
2021/03/16 08:57:26;;;;;;;13.27;1.70;;;7.50;81.10;;;;;;5039619;28;20043;-76
2021/03/16 08:59:57;;;;;;;14.17;2.20;;;7.70;81.90;;;;;;5040739;28;20122;-76
2021/03/16 09:02:27;;;;;;;13.00;2.37;;;7.90;80.60;;;;;;5040350;28;20112;-76
2021/03/16 09:04:54;;;;;;;9.25;1.45;;;8.00;76.80;;;;;;5030601;28;20407;-76
2021/03/16 09:07:24;;;;;;;12.97;1.73;;;8.10;76.30;;;;;;5045541;28;20053;-76
2021/03/16 09:10:04;;;;;;;10.47;1.40;;;8.10;76.60;;;;;;5055523;28;20125;-76
2021/03/16 09:12:30;;;;;;;10.93;1.50;;;7.90;74.90;;;;;;5042624;28;20056;-76
2021/03/16 09:15:07;;;;;;;9.13;1.33;;;7.80;75.70;;;;;;5041671;28;20056;-76
2021/03/16 09:17:34;;;;;;;9.43;1.77;;;7.70;76.10;;;;;;5042038;28;20088;-77
2021/03/16 09:20:15;;;;;;;11.47;1.60;;;7.80;76.70;;;;;;5042266;28;20044;-75
2021/03/16 09:22:42;;;;;;;10.03;1.80;;;8.00;76.10;;;;;;5042793;28;20045;-76
2021/03/16 09:25:10;;;;;;;11.70;1.77;;;8.10;76.20;;;;;;5022445;28;20049;-76
2021/03/16 09:27:39;;;;;;;14.10;1.80;;;8.20;76.00;;;;;;5021710;28;20132;-76
2021/03/16 09:30:08;;;;;;;11.47;1.87;;;8.20;75.30;;;;;;5042727;28;20037;-76
2021/03/16 09:32:43;;;;;;;15.57;2.33;;;8.10;76.60;;;;;;5023770;28;20057;-76
2021/03/16 09:35:13;;;;;;;10.13;1.40;;;7.90;76.80;;;;;;5039129;28;20052;-76
2021/03/16 09:37:47;;;;;;;11.07;1.80;;;7.90;77.60;;;;;;5037085;28;20037;-80
2021/03/16 09:40:14;;;;;;;12.37;1.67;;;7.90;78.50;;;;;;5040484;28;20048;-79
2021/03/16 09:42:45;;;;;;;12.93;2.40;;;8.00;79.60;;;;;;5039814;28;20065;-80
2021/03/16 09:45:24;;;;;;;11.50;1.73;;;8.20;77.80;;;;;;5041531;28;20117;-79
2021/03/16 09:47:53;;;;;;;12.70;1.50;;;8.40;77.80;;;;;;5038901;28;20047;-79
2021/03/16 09:50:22;;;;;;;11.73;1.40;;;8.50;76.60;;;;;;5042546;28;20122;-78
2021/03/16 09:52:59;;;;;;;9.80;1.63;;;8.50;74.50;;;;;;5054971;28;20131;-79
2021/03/16 09:55:26;;;;;;;9.40;2.03;;;8.50;73.30;;;;;;5061936;28;20047;-80
2021/03/16 09:57:55;;;;;;;9.53;1.17;;;8.40;75.10;;;;;;5041426;28;20041;-79
2021/03/16 10:00:23;;;;;;;9.73;1.43;;;8.50;74.80;;;;;;5027423;28;20041;-79
2021/03/16 10:02:49;;;;;;;13.17;1.70;;;8.50;74.70;;;;;;5027521;28;20407;-79
2021/03/16 10:05:21;;;;;;;12.37;1.70;;;8.50;76.10;;;;;;5046247;28;20055;-79
2021/03/16 10:07:52;;;;;;;13.53;2.47;;;8.70;74.30;;;;;;5041958;28;20115;-79
2021/03/16 10:10:25;;;;;;;7.18;0.95;;;8.80;74.10;;;;;;5041186;28;20046;-81
2021/03/16 10:13:03;;;;;;;10.33;1.40;;;8.90;68.50;;;;;;5038626;28;20068;-80
2021/03/16 10:15:40;;;;;;;7.33;1.20;;;8.90;71.00;;;;;;5047122;28;20052;-80
2021/03/16 10:18:09;;;;;;;7.97;1.30;;;8.90;69.00;;;;;;5042594;28;20040;-79
2021/03/16 10:20:38;;;;;;;9.00;1.60;;;8.90;68.30;;;;;;5046423;28;20045;-79
2021/03/16 10:23:10;;;;;;;9.67;0.90;;;8.90;70.30;;;;;;5047063;28;20072;-80
2021/03/16 10:25:37;;;;;;;8.70;1.20;;;8.80;69.80;;;;;;5044400;28;20115;-79
2021/03/16 10:28:05;;;;;;;9.07;1.20;;;8.80;69.70;;;;;;5029131;28;20060;-80
2021/03/16 10:30:38;;;;;;;10.97;1.73;;;8.70;69.50;;;;;;5046636;28;20052;-79
2021/03/16 10:33:08;;;;;;;9.80;1.30;;;8.70;68.90;;;;;;5042318;28;20091;-79
2021/03/16 10:35:37;;;;;;;11.77;2.07;;;8.70;70.20;;;;;;5048369;28;20037;-81
2021/03/16 10:38:07;;;;;;;8.00;1.63;;;8.60;71.20;;;;;;5043705;28;20496;-80
2021/03/16 10:40:34;;;;;;;9.30;1.40;;;8.50;71.10;;;;;;5056289;28;20064;-80
2021/03/16 10:43:10;;;;;;;9.23;1.30;;;8.50;71.80;;;;;;5026780;28;20039;-79
2021/03/16 10:45:36;;;;;;;8.73;1.50;;;8.70;73.10;;;;;;5024810;28;20048;-81
2021/03/16 10:48:02;;;;;;;8.47;1.27;;;8.80;73.40;;;;;;5041620;28;20095;-79
2021/03/16 10:50:30;;;;;;;7.03;1.17;;;8.90;69.90;;;;;;5017054;28;20112;-80
2021/03/16 10:52:56;;;;;;;6.23;1.17;;;8.90;71.50;;;;;;5022326;28;20049;-79
2021/03/16 10:55:22;;;;;;;11.63;1.47;;;9.00;69.50;;;;;;5031852;28;20504;-80
2021/03/16 10:57:51;;;;;;;9.83;1.57;;;9.20;69.10;;;;;;5027925;28;20044;-79
2021/03/16 11:00:17;;;;;;;8.60;1.30;;;9.30;67.70;;;;;;5012906;28;20041;-80
2021/03/16 11:02:45;;;;;;;9.80;1.40;;;9.30;69.20;;;;;;5010569;28;20036;-79
2021/03/16 11:05:11;;;;;;;9.80;1.97;;;9.50;68.50;;;;;;5026139;28;20120;-79
2021/03/16 11:07:37;;;;;;;8.47;1.47;;;9.60;67.30;;;;;;5009159;28;20033;-79
2021/03/16 11:10:06;;;;;;;10.17;1.30;;;9.40;65.70;;;;;;4994449;28;20416;-80
2021/03/16 11:12:32;;;;;;;7.10;1.43;;;9.20;66.70;;;;;;5025602;28;20120;-76
2021/03/16 11:14:58;;;;;;;6.07;1.47;;;9.00;67.10;;;;;;5023046;28;20556;-76
2021/03/16 11:17:24;;;;;;;9.70;1.20;;;9.00;67.10;;;;;;5038066;28;20052;-77
2021/03/16 11:19:51;;;;;;;11.00;1.40;;;9.10;68.80;;;;;;4988547;28;20048;-76
2021/03/16 11:22:17;;;;;;;8.90;1.30;;;9.30;67.80;;;;;;5023755;28;20182;-77
2021/03/16 11:24:43;;;;;;;8.50;1.07;;;9.60;66.40;;;;;;5041030;28;20614;-76
2021/03/16 11:27:09;;;;;;;9.07;1.50;;;9.70;63.10;;;;;;4997354;28;20520;-77
2021/03/16 11:29:35;;;;;;;12.30;1.73;;;9.50;65.30;;;;;;5037404;28;20045;-76
2021/03/16 11:32:01;;;;;;;8.17;1.53;;;9.50;63.40;;;;;;5040944;28;20045;-77
2021/03/16 11:34:29;;;;;;;9.50;1.70;;;9.30;65.50;;;;;;5034271;28;20052;-76
2021/03/16 11:36:56;;;;;;;13.93;1.43;;;9.30;67.40;;;;;;5023432;28;20045;-76
2021/03/16 11:39:22;;;;;;;6.40;1.17;;;9.20;67.60;;;;;;5021971;28;20956;-77
2021/03/16 11:41:47;;;;;;;6.37;1.10;;;9.00;68.70;;;;;;5041108;28;20635;-76
2021/03/16 11:44:16;;;;;;;10.87;1.83;;;8.90;67.20;;;;;;5036765;28;20040;-76
2021/03/16 11:46:42;;;;;;;9.53;1.50;;;8.70;68.20;;;;;;5045255;28;20037;-76
2021/03/16 11:49:09;;;;;;;8.13;1.67;;;8.90;69.10;;;;;;5043317;28;20038;-77
2021/03/16 11:51:35;;;;;;;10.07;0.90;;;9.10;69.50;;;;;;5041213;28;20811;-77
2021/03/16 11:54:01;;;;;;;9.73;1.30;;;9.30;67.30;;;;;;5043418;28;20060;-77
2021/03/16 11:56:27;;;;;;;9.60;1.40;;;9.60;65.60;;;;;;5036162;28;20886;-76
2021/03/16 11:58:53;;;;;;;7.53;1.53;;;9.80;63.90;;;;;;5025150;28;20051;-77
2021/03/16 12:01:22;;;;;;;8.07;1.20;;;9.70;63.60;;;;;;5032440;28;20103;-76
2021/03/16 12:03:50;;;;;;;12.53;1.50;;;9.60;64.50;;;;;;5041310;28;20431;-77
2021/03/16 12:06:16;;;;;;;8.40;0.97;;;9.50;64.10;;;;;;5037877;28;20097;-77
2021/03/16 12:08:42;;;;;;;10.17;1.77;;;9.40;65.90;;;;;;5040760;28;20045;-76
2021/03/16 12:11:08;;;;;;;5.77;0.80;;;9.40;66.30;;;;;;5019888;28;20099;-77
2021/03/16 12:13:34;;;;;;;7.47;1.07;;;9.40;61.30;;;;;;5047608;28;20440;-76
2021/03/16 12:16:00;;;;;;;6.33;1.27;;;9.50;61.20;;;;;;5039474;28;20060;-77
2021/03/16 12:18:25;;;;;;;9.33;1.07;;;9.70;63.30;;;;;;5006198;28;20123;-76
2021/03/16 12:20:52;;;;;;;9.07;1.40;;;10.00;64.30;;;;;;5041660;28;20041;-77
2021/03/16 12:23:21;;;;;;;9.57;1.30;;;10.10;61.10;;;;;;5038863;28;20068;-76
2021/03/16 12:25:51;;;;;;;6.60;1.57;;;10.00;59.00;;;;;;5036055;28;20045;-77
2021/03/16 12:28:21;;;;;;;5.07;0.77;;;9.70;59.10;;;;;;5036651;28;20821;-77
2021/03/16 12:30:51;;;;;;;7.50;1.02;;;9.50;59.90;;;;;;5041166;28;20033;-77
2021/03/16 12:33:19;;;;;;;6.32;1.10;;;9.50;61.10;;;;;;5048543;28;20442;-77
2021/03/16 12:35:45;;;;;;;8.27;1.07;;;9.60;61.30;;;;;;5042845;28;20033;-78
2021/03/16 12:38:11;;;;;;;5.33;0.90;;;9.80;58.40;;;;;;5036645;28;20053;-77
2021/03/16 12:40:37;;;;;;;6.93;1.03;;;9.80;61.20;;;;;;5043660;28;21136;-77
2021/03/16 12:43:03;;;;;;;7.03;1.20;;;9.80;60.80;;;;;;5063048;28;20131;-78
2021/03/16 12:45:30;;;;;;;12.43;1.17;;;9.90;61.70;;;;;;5047133;28;20070;-79
2021/03/16 12:47:56;;;;;;;6.67;1.43;;;10.20;59.30;;;;;;5042778;28;20033;-78
2021/03/16 12:50:24;;;;;;;7.50;1.17;;;10.40;58.50;;;;;;5045363;28;20576;-81
2021/03/16 12:52:50;;;;;;;8.07;1.30;;;10.40;57.30;;;;;;5042585;28;20343;-82
2021/03/16 12:55:16;;;;;;;6.53;1.13;;;10.20;55.90;;;;;;5027251;28;20550;-80
2021/03/16 12:57:45;;;;;;;8.73;1.30;;;10.00;58.30;;;;;;5065313;28;20048;-81